createdAt,value
2023-02-17T00:04:22.950Z,72.27
2023-02-17T00:09:15.001Z,72.08
2023-02-17T00:14:08.104Z,71.32
2023-02-17T00:19:01.742Z,71.41
2023-02-17T00:23:54.143Z,71.68
2023-02-17T00:28:46.612Z,71.49
2023-02-17T00:33:38.701Z,71.70
2023-02-17T00:38:30.458Z,71.35
2023-02-17T00:43:22.174Z,71.58
2023-02-17T00:48:13.854Z,71.91
2023-02-17T00:53:05.621Z,71.64
2023-02-17T00:57:58.078Z,71.87
2023-02-17T01:02:50.802Z,71.84
2023-02-17T01:07:42.694Z,72.13
2023-02-17T01:12:34.540Z,71.63
2023-02-17T01:17:26.431Z,71.47
2023-02-17T01:22:20.164Z,71.71
2023-02-17T01:27:12.593Z,71.74
2023-02-17T01:32:04.474Z,71.60
2023-02-17T01:36:56.172Z,71.79
2023-02-17T01:41:47.926Z,71.80
2023-02-17T01:46:42.218Z,71.79
2023-02-17T01:51:38.631Z,71.51
2023-02-17T01:56:33.366Z,71.61
2023-02-17T02:01:25.214Z,71.46
2023-02-17T02:06:23.099Z,71.62
2023-02-17T02:11:14.876Z,71.47
2023-02-17T02:16:25.361Z,71.42
2023-02-17T02:21:49.485Z,71.84
2023-02-17T02:26:53.687Z,71.85
2023-02-17T02:32:07.052Z,72.19
2023-02-17T02:37:18.288Z,71.84
2023-02-17T02:42:16.658Z,72.18
2023-02-17T02:47:45.925Z,72.12
2023-02-17T02:52:50.062Z,71.99
2023-02-17T02:57:56.432Z,71.94
2023-02-17T03:03:01.703Z,72.12
2023-02-17T03:08:11.564Z,72.58
2023-02-17T03:13:03.640Z,72.14
2023-02-17T03:18:01.234Z,72.10
2023-02-17T03:22:53.300Z,71.91
2023-02-17T03:27:45.159Z,72.04
2023-02-17T03:32:38.395Z,72.30
2023-02-17T03:37:30.183Z,72.26
2023-02-17T03:42:21.846Z,71.94
2023-02-17T03:47:13.539Z,71.89
2023-02-17T03:52:05.278Z,71.96
2023-02-17T03:56:57.235Z,71.85
2023-02-17T04:01:48.952Z,71.42
2023-02-17T04:06:41.216Z,71.68
2023-02-17T04:11:33.001Z,71.25
2023-02-17T04:16:24.679Z,71.02
2023-02-17T04:21:16.322Z,71.28
2023-02-17T04:26:09.202Z,70.90
2023-02-17T04:31:01.206Z,70.73
2023-02-17T04:35:59.381Z,70.78
2023-02-17T04:40:51.081Z,70.85
2023-02-17T04:45:42.780Z,70.81
2023-02-17T04:50:34.557Z,70.15
2023-02-17T04:55:26.275Z,70.90
2023-02-17T05:00:18.120Z,71.24
2023-02-17T05:05:09.853Z,71.86
2023-02-17T05:10:01.740Z,71.50
2023-02-17T05:14:53.551Z,71.01
2023-02-17T05:19:45.227Z,70.47
2023-02-17T05:24:38.796Z,70.24
2023-02-17T05:29:30.775Z,69.50
2023-02-17T05:34:22.497Z,69.48
2023-02-17T05:39:14.356Z,69.85
2023-02-17T05:44:07.028Z,69.80
2023-02-17T05:48:58.783Z,69.43
2023-02-17T05:53:50.672Z,69.67
2023-02-17T05:58:42.382Z,70.00
2023-02-17T06:03:34.763Z,69.67
2023-02-17T06:08:26.410Z,70.19
2023-02-17T06:13:18.037Z,70.45
2023-02-17T06:18:09.696Z,71.12
2023-02-17T06:23:01.389Z,71.24
2023-02-17T06:27:53.561Z,71.73
2023-02-17T06:32:45.358Z,71.83
2023-02-17T06:37:37.129Z,72.31
2023-02-17T06:42:28.860Z,72.55
2023-02-17T06:47:20.628Z,72.52
2023-02-17T06:52:12.430Z,72.38
2023-02-17T06:57:04.229Z,72.52
2023-02-17T07:01:56.097Z,72.67
2023-02-17T07:06:47.966Z,72.79
2023-02-17T07:11:40.356Z,72.77
2023-02-17T07:16:32.124Z,72.81
2023-02-17T07:21:23.913Z,73.31
2023-02-17T07:26:16.211Z,73.17
2023-02-17T07:31:13.966Z,73.28
2023-02-17T07:36:08.307Z,73.11
2023-02-17T07:41:12.898Z,72.47
2023-02-17T07:46:06.037Z,72.77
2023-02-17T07:50:58.024Z,72.48
2023-02-17T07:55:50.886Z,72.55
2023-02-17T08:00:42.617Z,72.38
2023-02-17T08:05:34.297Z,72.60
2023-02-17T08:10:44.840Z,72.61
2023-02-17T08:15:36.579Z,72.52
2023-02-17T08:20:28.425Z,72.19
2023-02-17T08:25:20.180Z,72.43
2023-02-17T08:30:12.343Z,71.78
2023-02-17T08:35:05.587Z,71.01
2023-02-17T08:39:59.027Z,70.16
2023-02-17T08:44:50.806Z,69.25
2023-02-17T08:49:42.588Z,68.64
2023-02-17T08:54:34.565Z,68.50
2023-02-17T08:59:26.434Z,68.35
2023-02-17T09:04:18.536Z,67.60
2023-02-17T09:09:13.181Z,67.07
2023-02-17T09:14:05.614Z,66.09
2023-02-17T09:18:58.283Z,64.93
2023-02-17T09:23:50.012Z,64.08
2023-02-17T09:28:42.433Z,62.79
2023-02-17T09:33:34.132Z,61.79
2023-02-17T09:38:25.959Z,61.24
2023-02-17T09:43:22.177Z,60.91
2023-02-17T09:48:17.176Z,60.11
2023-02-17T09:53:30.609Z,59.37
2023-02-17T09:58:25.270Z,58.64
2023-02-17T10:03:26.279Z,57.92
2023-02-17T10:08:27.433Z,57.21
2023-02-17T10:13:21.999Z,56.55
2023-02-17T10:18:21.305Z,55.78
2023-02-17T10:23:26.325Z,55.40
2023-02-17T10:28:28.744Z,55.11
2023-02-17T10:33:37.094Z,54.96
2023-02-17T10:38:37.976Z,54.93
2023-02-17T10:43:32.773Z,54.59
2023-02-17T10:48:31.957Z,54.32
2023-02-17T10:53:36.319Z,53.39
2023-02-17T10:58:43.012Z,52.20
2023-02-17T11:03:36.872Z,53.16
2023-02-17T11:08:33.896Z,53.22
2023-02-17T11:13:38.651Z,53.04
2023-02-17T11:18:39.139Z,53.34
2023-02-17T11:23:31.440Z,53.82
2023-02-17T11:28:24.928Z,54.77
2023-02-17T11:33:22.670Z,55.62
2023-02-17T11:38:24.535Z,55.68
2023-02-17T11:43:19.035Z,55.93
2023-02-17T11:48:37.103Z,55.27
2023-02-17T11:53:28.773Z,54.18
2023-02-17T11:58:29.598Z,54.13
2023-02-17T12:03:21.905Z,53.99
2023-02-17T12:08:36.348Z,55.29
2023-02-17T12:13:28.037Z,55.05
2023-02-17T12:18:37.244Z,54.65
2023-02-17T12:23:41.056Z,54.39
2023-02-17T12:28:48.357Z,53.71
2023-02-17T12:34:01.718Z,53.84
2023-02-17T12:38:57.232Z,53.26
2023-02-17T12:43:59.923Z,53.49
2023-02-17T12:49:09.407Z,53.44
2023-02-17T12:54:06.977Z,53.42
2023-02-17T12:59:12.520Z,53.82
2023-02-17T13:04:05.101Z,54.12
2023-02-17T13:09:03.272Z,54.18
2023-02-17T13:13:55.037Z,54.09
2023-02-17T13:18:50.452Z,53.48
2023-02-17T13:23:45.236Z,53.51
2023-02-17T13:28:39.798Z,54.37
2023-02-17T13:33:31.774Z,54.36
2023-02-17T13:38:32.467Z,54.44
2023-02-17T13:43:24.186Z,53.90
2023-02-17T13:48:24.156Z,54.46
2023-02-17T13:53:29.860Z,55.45
2023-02-17T13:58:28.634Z,55.79
2023-02-17T14:03:28.957Z,56.73
2023-02-17T14:08:40.864Z,57.54
2023-02-17T14:13:32.720Z,57.74
2023-02-17T14:18:41.321Z,58.29
2023-02-17T14:23:52.287Z,58.48
2023-02-17T14:28:57.612Z,58.32
2023-02-17T14:33:57.846Z,57.92
2023-02-17T14:38:55.392Z,57.72
2023-02-17T14:43:47.084Z,57.94
2023-02-17T14:48:38.736Z,58.21
2023-02-17T14:53:33.222Z,58.27
2023-02-17T14:58:26.822Z,58.64
2023-02-17T15:03:18.607Z,58.61
2023-02-17T15:08:17.163Z,59.40
2023-02-17T15:13:18.755Z,59.33
2023-02-17T15:18:16.043Z,59.66
2023-02-17T15:23:14.323Z,59.88
2023-02-17T15:28:06.250Z,60.25
2023-02-17T15:32:58.776Z,60.37
2023-02-17T15:37:51.082Z,61.51
2023-02-17T15:42:44.688Z,62.28
2023-02-17T15:47:36.564Z,62.49
2023-02-17T15:52:28.436Z,62.51
2023-02-17T15:57:23.024Z,62.86
2023-02-17T16:02:23.631Z,63.00
2023-02-17T16:07:15.782Z,63.37
2023-02-17T16:12:26.431Z,63.62
2023-02-17T16:17:18.513Z,63.92
2023-02-17T16:22:10.336Z,64.97
2023-02-17T16:27:02.222Z,65.67
2023-02-17T16:31:55.112Z,65.74
2023-02-17T16:36:49.297Z,66.72
2023-02-17T16:41:41.102Z,67.03
2023-02-17T16:46:35.927Z,68.54
2023-02-17T16:51:27.784Z,69.30
2023-02-17T16:56:43.123Z,73.39
2023-02-17T17:01:34.920Z,74.31
2023-02-17T17:06:30.425Z,73.91
2023-02-17T17:11:24.779Z,73.75
2023-02-17T17:16:22.687Z,73.77
2023-02-17T17:21:16.091Z,73.76
2023-02-17T17:26:21.366Z,72.52
2023-02-17T17:31:13.147Z,72.66
2023-02-17T17:36:15.183Z,71.91
2023-02-17T17:41:06.894Z,71.52
2023-02-17T17:45:58.812Z,71.65
2023-02-17T17:50:50.531Z,71.88
2023-02-17T17:55:42.252Z,71.52
2023-02-17T18:00:34.096Z,71.84
2023-02-17T18:05:25.933Z,72.14
2023-02-17T18:10:18.127Z,72.06
2023-02-17T18:15:10.711Z,72.06
2023-02-17T18:20:02.753Z,71.93
2023-02-17T18:24:54.588Z,71.79
2023-02-17T18:29:46.290Z,72.08
2023-02-17T18:34:37.966Z,72.03
2023-02-17T18:39:29.735Z,72.11
2023-02-17T18:44:21.694Z,72.33
2023-02-17T18:49:13.379Z,72.25
2023-02-17T18:54:10.732Z,72.04
2023-02-17T18:59:02.554Z,72.23
2023-02-17T19:03:57.059Z,72.15
2023-02-17T19:08:49.158Z,72.34
2023-02-17T19:13:41.742Z,72.64
2023-02-17T19:18:33.513Z,72.78
2023-02-17T19:23:25.209Z,72.54
2023-02-17T19:28:16.943Z,72.98
2023-02-17T19:33:08.649Z,72.46
2023-02-17T19:38:00.435Z,73.13
2023-02-17T19:42:52.162Z,73.03
2023-02-17T19:47:43.957Z,72.51
2023-02-17T19:52:37.082Z,72.67
2023-02-17T19:57:29.786Z,72.56
2023-02-17T20:02:21.783Z,72.68
2023-02-17T20:07:13.696Z,73.80
2023-02-17T20:12:06.388Z,73.14
2023-02-17T20:16:59.600Z,72.82
2023-02-17T20:21:51.602Z,72.98
2023-02-17T20:26:46.253Z,73.24
2023-02-17T20:31:40.215Z,72.73
2023-02-17T20:36:33.347Z,72.98
2023-02-17T20:41:25.205Z,72.77
2023-02-17T20:46:22.589Z,73.06
2023-02-17T20:51:14.354Z,73.21
2023-02-17T20:56:18.862Z,73.13
2023-02-17T21:01:10.821Z,72.73
2023-02-17T21:06:05.821Z,73.05
2023-02-17T21:10:57.689Z,72.90
2023-02-17T21:15:49.967Z,72.49
2023-02-17T21:20:42.183Z,72.63
2023-02-17T21:25:34.191Z,72.42
2023-02-17T21:30:26.127Z,72.66
2023-02-17T21:35:18.792Z,72.55
2023-02-17T21:40:11.679Z,73.15
2023-02-17T21:45:04.071Z,73.00
2023-02-17T21:49:56.092Z,72.69
2023-02-17T21:54:48.153Z,72.95
2023-02-17T21:59:39.916Z,72.42
2023-02-17T22:04:32.469Z,72.61
2023-02-17T22:09:24.389Z,72.20
2023-02-17T22:14:20.810Z,72.96
2023-02-17T22:19:18.562Z,73.10
2023-02-17T22:24:10.552Z,72.90
2023-02-17T22:29:02.518Z,72.78
2023-02-17T22:33:56.960Z,72.54
2023-02-17T22:38:49.846Z,72.71
2023-02-17T22:43:42.889Z,72.75
2023-02-17T22:48:37.525Z,72.90
2023-02-17T22:53:30.726Z,72.41
2023-02-17T22:58:24.291Z,72.60
2023-02-17T23:03:19.268Z,72.76
2023-02-17T23:08:11.561Z,73.13
2023-02-17T23:13:03.335Z,72.77
2023-02-17T23:17:57.898Z,72.89
2023-02-17T23:22:49.768Z,72.97
2023-02-17T23:27:43.693Z,73.46
2023-02-17T23:32:35.425Z,73.82
2023-02-17T23:37:27.119Z,73.51
2023-02-17T23:42:18.839Z,74.06
2023-02-17T23:47:10.529Z,73.83
2023-02-17T23:52:03.551Z,74.21
2023-02-17T23:56:55.287Z,74.52
